createdAt,value
2018-02-24T00:00:52.090Z,55.70
2018-02-24T00:03:19.669Z,55.97
2018-02-24T00:05:47.218Z,58.65
2018-02-24T00:08:14.809Z,40.03
2018-02-24T00:10:42.408Z,49.28
2018-02-24T00:13:10.726Z,42.75
2018-02-24T00:15:38.337Z,52.65
2018-02-24T00:18:05.895Z,60.88
2018-02-24T00:20:33.449Z,52.85
2018-02-24T00:23:01.022Z,49.88
2018-02-24T00:25:28.608Z,57.97
2018-02-24T00:27:56.157Z,56.83
2018-02-24T00:30:24.470Z,53.85
2018-02-24T00:32:52.057Z,51.95
2018-02-24T00:35:19.595Z,56.37
2018-02-24T00:37:47.175Z,55.50
2018-02-24T00:40:14.727Z,58.50
2018-02-24T00:42:42.310Z,54.45
2018-02-24T00:45:09.851Z,58.85
2018-02-24T00:47:37.442Z,59.13
2018-02-24T00:50:05.780Z,57.78
2018-02-24T00:52:33.321Z,44.13
2018-02-24T00:55:00.900Z,55.72
2018-02-24T00:57:28.437Z,70.65
2018-02-24T00:59:56.016Z,61.53
2018-02-24T01:02:23.564Z,60.05
2018-02-24T01:04:51.139Z,56.45
2018-02-24T01:07:18.696Z,56.78
2018-02-24T01:09:46.291Z,55.65
2018-02-24T01:12:13.836Z,56.72
2018-02-24T01:14:41.429Z,54.63
2018-02-24T01:17:09.007Z,61.28
2018-02-24T01:19:36.613Z,53.67
2018-02-24T01:22:04.192Z,63.85
2018-02-24T01:24:31.772Z,51.22
2018-02-24T01:27:00.184Z,55.25
2018-02-24T01:29:27.768Z,46.45
2018-02-24T01:31:55.308Z,54.58
2018-02-24T01:34:22.895Z,55.10
2018-02-24T01:36:50.443Z,57.53
2018-02-24T01:39:18.000Z,55.15
2018-02-24T01:41:45.575Z,46.75
2018-02-24T01:44:13.114Z,58.17
2018-02-24T01:46:40.688Z,54.95
2018-02-24T01:49:08.224Z,50.65
2018-02-24T01:51:35.808Z,57.97
2018-02-24T01:54:03.437Z,57.13
2018-02-24T01:56:31.020Z,59.13
2018-02-24T01:58:58.564Z,54.65
2018-02-24T02:01:26.135Z,62.03
2018-02-24T02:03:53.677Z,43.97
2018-02-24T02:06:21.258Z,53.42
2018-02-24T02:08:48.803Z,51.15
2018-02-24T02:11:16.406Z,47.60
2018-02-24T02:13:44.720Z,56.58
2018-02-24T02:16:12.264Z,56.05
2018-02-24T02:18:39.869Z,60.55
2018-02-24T02:21:07.406Z,62.58
2018-02-24T02:23:34.981Z,55.67
2018-02-24T02:26:02.559Z,52.70
2018-02-24T02:28:30.143Z,54.38
2018-02-24T02:30:57.696Z,60.97
2018-02-24T02:33:25.278Z,54.65
2018-02-24T02:35:53.592Z,59.45
2018-02-24T02:38:21.176Z,59.50
2018-02-24T02:40:48.774Z,59.35
2018-02-24T02:43:17.078Z,69.90
2018-02-24T02:45:44.687Z,63.33
2018-02-24T02:48:12.270Z,58.13
2018-02-24T02:50:40.608Z,61.30
2018-02-24T02:53:08.245Z,64.00
2018-02-24T02:55:35.793Z,61.63
2018-02-24T02:58:03.344Z,62.40
2018-02-24T03:00:30.953Z,61.42
2018-02-24T03:02:58.493Z,61.97
2018-02-24T03:05:26.039Z,53.03
2018-02-24T03:07:53.620Z,66.72
2018-02-24T03:10:21.164Z,72.43
2018-02-24T03:12:48.764Z,53.22
2018-02-24T03:15:16.383Z,47.80
2018-02-24T03:17:43.980Z,47.00
2018-02-24T03:20:13.032Z,45.97
2018-02-24T03:22:40.636Z,64.10
2018-02-24T03:25:08.957Z,60.97
2018-02-24T03:27:36.537Z,60.53
2018-02-24T03:30:04.117Z,51.08
2018-02-24T03:32:31.664Z,61.22
2018-02-24T03:34:59.242Z,59.05
2018-02-24T03:37:26.793Z,70.05
2018-02-24T03:39:54.372Z,66.07
2018-02-24T03:42:22.687Z,62.80
2018-02-24T03:44:50.277Z,62.58
2018-02-24T03:47:17.819Z,61.70
2018-02-24T03:49:45.392Z,50.42
2018-02-24T03:52:12.964Z,52.40
2018-02-24T03:54:40.515Z,58.83
2018-02-24T03:57:08.102Z,66.15
2018-02-24T03:59:35.644Z,49.13
2018-02-24T04:02:03.229Z,46.65
2018-02-24T04:04:30.794Z,63.40
2018-02-24T04:06:58.373Z,52.08
2018-02-24T04:09:26.681Z,61.78
2018-02-24T04:11:54.281Z,64.60
2018-02-24T04:14:21.825Z,61.37
2018-02-24T04:16:49.445Z,62.90
2018-02-24T04:19:16.988Z,65.12
2018-02-24T04:21:45.333Z,62.13
2018-02-24T04:24:12.894Z,59.03
2018-02-24T04:26:40.474Z,57.50
2018-02-24T04:29:08.056Z,54.92
2018-02-24T04:31:36.464Z,67.47
2018-02-24T04:34:04.064Z,53.67
2018-02-24T04:36:31.610Z,67.78
2018-02-24T04:38:59.160Z,45.03
2018-02-24T04:41:26.746Z,67.05
2018-02-24T04:43:54.333Z,54.65
2018-02-24T04:46:22.639Z,68.97
2018-02-24T04:48:50.173Z,47.62
2018-02-24T04:51:17.757Z,56.58
2018-02-24T04:53:46.203Z,57.03
2018-02-24T04:56:14.542Z,60.72
2018-02-24T04:58:42.096Z,58.35
2018-02-24T05:01:09.689Z,68.07
2018-02-24T05:03:38.015Z,55.40
2018-02-24T05:06:44.816Z,62.95
2018-02-24T05:09:14.850Z,55.47
2018-02-24T05:11:42.432Z,54.90
2018-02-24T05:14:10.737Z,51.40
2018-02-24T05:16:38.311Z,60.22
2018-02-24T05:19:05.858Z,61.58
2018-02-24T05:21:33.451Z,66.00
2018-02-24T05:24:00.996Z,57.30
2018-02-24T05:26:28.544Z,59.58
2018-02-24T05:28:56.124Z,65.85
2018-02-24T05:31:23.685Z,54.53
2018-02-24T05:33:51.291Z,59.38
2018-02-24T05:36:19.603Z,46.63
2018-02-24T05:38:47.143Z,54.60
2018-02-24T05:41:14.725Z,57.50
2018-02-24T05:43:42.306Z,56.35
2018-02-24T05:46:09.889Z,61.33
2018-02-24T05:48:37.430Z,57.08
2018-02-24T05:51:05.019Z,49.83
2018-02-24T05:53:33.331Z,58.28
2018-02-24T05:56:00.887Z,61.53
2018-02-24T05:58:28.466Z,62.20
2018-02-24T06:00:56.068Z,52.83
2018-02-24T06:03:23.605Z,63.17
2018-02-24T06:05:51.144Z,57.10
2018-02-24T06:08:18.724Z,58.33
2018-02-24T06:10:46.298Z,53.75
2018-02-24T06:13:13.876Z,55.42
2018-02-24T06:15:42.199Z,52.92
2018-02-24T06:18:09.800Z,53.13
2018-02-24T06:20:37.344Z,58.30
2018-02-24T06:23:04.950Z,57.95
2018-02-24T06:25:32.535Z,59.58
2018-02-24T06:28:00.112Z,55.83
2018-02-24T06:30:27.652Z,51.83
2018-02-24T06:32:55.239Z,39.03
2018-02-24T06:35:22.790Z,49.03
2018-02-24T06:37:50.367Z,55.17
2018-02-24T06:40:17.929Z,58.45
2018-02-24T06:42:45.513Z,56.25
2018-02-24T06:45:13.830Z,54.33
2018-02-24T06:47:41.417Z,44.28
2018-02-24T06:50:08.972Z,59.78
2018-02-24T06:52:36.551Z,48.42
2018-02-24T06:55:04.128Z,52.97
2018-02-24T06:57:32.436Z,60.12
2018-02-24T07:00:00.037Z,63.35
2018-02-24T07:02:27.623Z,59.60
2018-02-24T07:04:55.945Z,54.03
2018-02-24T07:07:23.645Z,61.47
2018-02-24T07:09:51.156Z,45.53
2018-02-24T07:12:18.719Z,60.08
2018-02-24T07:14:46.315Z,61.35
2018-02-24T07:17:13.926Z,58.55
2018-02-24T07:19:41.479Z,45.22
2018-02-24T07:22:09.867Z,55.53
2018-02-24T07:24:37.460Z,47.58
2018-02-24T07:27:05.026Z,50.25
2018-02-24T07:29:32.611Z,51.60
2018-02-24T07:32:00.204Z,45.85
2018-02-24T07:34:27.752Z,51.05
2018-02-24T07:36:56.113Z,31.83
2018-02-24T07:39:23.667Z,35.00
2018-02-24T07:41:51.273Z,50.92
2018-02-24T07:44:18.926Z,38.53
2018-02-24T07:46:46.540Z,39.80
2018-02-24T07:49:14.137Z,52.45
2018-02-24T07:51:42.489Z,49.83
2018-02-24T07:54:10.083Z,46.45
2018-02-24T07:56:37.627Z,41.55
2018-02-24T07:59:06.029Z,42.13
2018-02-24T08:01:33.611Z,47.20
2018-02-24T08:04:01.184Z,43.75
2018-02-24T08:06:28.774Z,50.83
2018-02-24T08:08:57.165Z,45.33
2018-02-24T08:11:25.508Z,39.80
2018-02-24T08:13:53.111Z,47.50
2018-02-24T08:16:20.806Z,40.58
2018-02-24T08:18:48.378Z,50.30
2018-02-24T08:21:15.929Z,41.70
2018-02-24T08:23:43.556Z,50.65
2018-02-24T08:26:11.095Z,42.45
2018-02-24T08:28:39.406Z,43.13
2018-02-24T08:31:07.024Z,49.42
2018-02-24T08:33:34.575Z,41.75
2018-02-24T08:36:02.201Z,36.30
2018-02-24T08:38:29.746Z,43.13
2018-02-24T08:40:57.316Z,34.67
2018-02-24T08:43:24.917Z,36.22
2018-02-24T08:45:52.571Z,40.33
2018-02-24T08:48:20.193Z,46.28
2018-02-24T08:50:47.731Z,44.83
2018-02-24T08:53:16.091Z,48.33
2018-02-24T08:55:44.463Z,41.37
2018-02-24T08:58:12.013Z,41.75
2018-02-24T09:00:39.604Z,45.60
2018-02-24T09:03:07.922Z,41.10
2018-02-24T09:05:35.500Z,38.47
2018-02-24T09:08:03.069Z,46.40
2018-02-24T09:10:30.701Z,45.92
2018-02-24T09:12:58.302Z,44.22
2018-02-24T09:15:25.942Z,41.03
2018-02-24T09:17:53.484Z,40.55
2018-02-24T09:20:21.026Z,42.75
2018-02-24T09:22:48.608Z,43.25
2018-02-24T09:25:16.200Z,33.35
2018-02-24T09:27:43.773Z,45.97
2018-02-24T09:30:12.088Z,42.83
2018-02-24T09:32:39.701Z,38.33
2018-02-24T09:35:07.235Z,40.17
2018-02-24T09:37:34.800Z,33.50
2018-02-24T09:40:02.402Z,35.75
2018-02-24T09:42:30.733Z,28.87
2018-02-24T09:44:58.463Z,30.40
2018-02-24T09:47:26.021Z,41.58
2018-02-24T09:49:53.556Z,37.80
2018-02-24T09:52:21.922Z,39.55
2018-02-24T09:54:49.484Z,35.08
2018-02-24T09:57:17.016Z,34.10
2018-02-24T09:59:44.599Z,30.08
2018-02-24T10:02:12.148Z,38.90
2018-02-24T10:04:39.769Z,36.40
2018-02-24T10:07:07.399Z,35.78
2018-02-24T10:09:35.717Z,36.53
2018-02-24T10:12:03.281Z,22.15
2018-02-24T10:14:30.893Z,37.10
2018-02-24T10:16:59.214Z,34.08
2018-02-24T10:19:26.763Z,37.35
2018-02-24T10:21:54.353Z,39.70
2018-02-24T10:24:21.899Z,37.95
2018-02-24T10:26:49.549Z,36.72
2018-02-24T10:29:17.092Z,35.90
2018-02-24T10:31:44.752Z,29.20
2018-02-24T10:34:12.293Z,36.08
2018-02-24T10:36:40.634Z,35.88
2018-02-24T10:39:08.180Z,34.03
2018-02-24T10:41:35.812Z,32.90
2018-02-24T10:44:03.400Z,36.28
2018-02-24T10:46:31.049Z,27.87
2018-02-24T10:49:10.796Z,31.48
2018-02-24T10:51:38.467Z,30.45
2018-02-24T10:54:06.032Z,26.80
2018-02-24T10:56:33.854Z,31.62
2018-02-24T10:59:01.402Z,24.75
2018-02-24T11:01:29.719Z,23.35
2018-02-24T11:03:57.299Z,31.62
2018-02-24T11:06:24.843Z,30.73
2018-02-24T11:08:52.447Z,27.52
2018-02-24T11:11:20.830Z,27.92
2018-02-24T11:13:48.356Z,22.98
2018-02-24T11:16:15.955Z,30.50
2018-02-24T11:18:44.259Z,22.75
2018-02-24T11:21:11.845Z,26.95
2018-02-24T11:23:39.425Z,27.55
2018-02-24T11:26:07.022Z,27.67
2018-02-24T11:28:35.340Z,27.37
2018-02-24T11:31:02.994Z,22.65
2018-02-24T11:33:30.575Z,21.92
2018-02-24T11:35:58.115Z,20.00
2018-02-24T11:38:25.743Z,26.15
2018-02-24T11:40:54.061Z,24.60
2018-02-24T11:43:21.685Z,26.23
2018-02-24T11:45:49.244Z,24.08
2018-02-24T11:48:17.582Z,23.23
2018-02-24T11:50:45.139Z,23.27
2018-02-24T11:53:12.726Z,22.50
2018-02-24T11:55:41.099Z,23.77
2018-02-24T11:58:09.546Z,21.25
2018-02-24T12:00:37.137Z,24.20
2018-02-24T12:03:04.700Z,25.20
2018-02-24T12:05:33.052Z,23.83
2018-02-24T12:08:00.673Z,22.33
2018-02-24T12:10:28.219Z,23.00
2018-02-24T12:12:55.793Z,19.08
2018-02-24T12:15:23.388Z,23.15
2018-02-24T12:17:50.957Z,20.35
2018-02-24T12:20:18.504Z,21.25
2018-02-24T12:22:46.090Z,20.02
2018-02-24T12:25:13.638Z,22.20
2018-02-24T12:27:41.232Z,22.10
2018-02-24T12:30:09.650Z,23.70
2018-02-24T12:32:37.191Z,26.33
2018-02-24T12:35:04.869Z,19.95
2018-02-24T12:37:32.497Z,22.15
2018-02-24T12:40:00.812Z,21.87
2018-02-24T12:42:28.611Z,24.75
2018-02-24T12:44:56.160Z,18.20
2018-02-24T12:47:23.895Z,17.08
2018-02-24T12:49:51.511Z,22.40
2018-02-24T12:52:19.824Z,18.27
2018-02-24T12:54:47.410Z,22.48
2018-02-24T12:57:15.056Z,23.40
2018-02-24T12:59:42.760Z,27.25
2018-02-24T13:02:10.310Z,21.60
2018-02-24T13:04:37.888Z,21.40
2018-02-24T13:07:06.244Z,22.35
2018-02-24T13:09:33.852Z,21.05
2018-02-24T13:12:01.426Z,21.15
2018-02-24T13:14:28.959Z,21.80
2018-02-24T13:16:57.302Z,26.55
2018-02-24T13:19:24.890Z,23.17
2018-02-24T13:21:53.196Z,23.45
2018-02-24T13:24:20.767Z,21.77
2018-02-24T13:26:48.351Z,19.08
2018-02-24T13:29:15.925Z,21.33
2018-02-24T13:31:43.510Z,14.23
2018-02-24T13:34:11.860Z,20.35
2018-02-24T13:36:39.441Z,24.25
2018-02-24T13:39:07.747Z,20.00
2018-02-24T13:41:35.337Z,20.25
2018-02-24T13:44:02.891Z,20.50
2018-02-24T13:46:30.441Z,19.98
2018-02-24T13:48:58.011Z,23.35
2018-02-24T13:51:25.572Z,22.25
2018-02-24T13:53:53.953Z,17.87
2018-02-24T13:56:21.495Z,21.35
2018-02-24T13:58:49.166Z,21.73
2018-02-24T14:01:16.725Z,25.20
2018-02-24T14:03:44.304Z,22.52
2018-02-24T14:06:11.883Z,30.62
2018-02-24T14:08:39.480Z,25.27
2018-02-24T14:11:07.109Z,18.60
2018-02-24T14:13:34.644Z,26.25
2018-02-24T14:16:02.181Z,29.63
2018-02-24T14:18:29.794Z,23.62
2018-02-24T14:20:57.327Z,27.45
2018-02-24T14:23:24.888Z,25.15
2018-02-24T14:25:52.500Z,24.73
2018-02-24T14:28:20.037Z,21.45
2018-02-24T14:30:48.344Z,32.53
2018-02-24T14:33:15.971Z,29.30
2018-02-24T14:35:43.547Z,29.58
2018-02-24T14:38:11.892Z,24.65
2018-02-24T14:40:39.472Z,25.02
2018-02-24T14:43:07.031Z,23.10
2018-02-24T14:45:34.626Z,21.48
2018-02-24T14:48:02.176Z,21.87
2018-02-24T14:50:29.760Z,28.20
2018-02-24T14:52:57.347Z,22.92
2018-02-24T14:55:24.897Z,22.92
2018-02-24T14:57:52.475Z,25.80
2018-02-24T15:00:20.850Z,21.48
2018-02-24T15:02:48.461Z,27.92
2018-02-24T15:05:16.044Z,23.65
2018-02-24T15:07:43.622Z,25.17
2018-02-24T15:10:11.215Z,26.00
2018-02-24T15:12:39.556Z,23.77
2018-02-24T15:15:07.113Z,24.83
2018-02-24T15:17:34.693Z,27.87
2018-02-24T15:20:03.047Z,22.23
2018-02-24T15:22:30.602Z,18.33
2018-02-24T15:24:58.188Z,23.70
2018-02-24T15:27:25.802Z,22.80
2018-02-24T15:29:53.348Z,23.02
2018-02-24T15:32:21.702Z,25.58
2018-02-24T15:34:49.310Z,26.25
2018-02-24T15:37:16.977Z,21.67
2018-02-24T15:39:44.557Z,22.08
2018-02-24T15:42:12.208Z,29.10
2018-02-24T15:44:39.821Z,24.27
2018-02-24T15:47:08.183Z,23.20
2018-02-24T15:49:35.748Z,20.30
2018-02-24T15:52:04.221Z,22.33
2018-02-24T15:54:31.774Z,24.98
2018-02-24T15:56:59.364Z,20.70
2018-02-24T15:59:27.778Z,23.67
2018-02-24T16:01:55.352Z,23.40
2018-02-24T16:04:22.899Z,22.50
2018-02-24T16:06:50.495Z,27.55
2018-02-24T16:09:18.036Z,24.63
2018-02-24T16:11:45.691Z,22.80
2018-02-24T16:14:13.353Z,20.65
2018-02-24T16:16:40.847Z,23.05
2018-02-24T16:19:09.218Z,15.75
2018-02-24T16:21:37.562Z,24.33
2018-02-24T16:24:05.159Z,17.15
2018-02-24T16:26:32.736Z,21.90
2018-02-24T16:29:01.056Z,19.12
2018-02-24T16:31:28.652Z,19.25
2018-02-24T16:33:56.193Z,18.10
2018-02-24T16:36:23.834Z,20.35
2018-02-24T16:38:51.416Z,22.25
2018-02-24T16:41:19.009Z,22.70
2018-02-24T16:43:47.331Z,18.00
2018-02-24T16:46:14.914Z,16.45
2018-02-24T16:48:42.451Z,17.65
2018-02-24T16:51:10.023Z,19.30
2018-02-24T16:53:37.560Z,21.85
2018-02-24T16:56:05.143Z,21.08
2018-02-24T16:58:32.685Z,21.40
2018-02-24T17:01:00.226Z,23.60
2018-02-24T17:03:27.803Z,23.67
2018-02-24T17:05:55.402Z,19.90
2018-02-24T17:08:22.940Z,24.83
2018-02-24T17:10:50.472Z,19.80
2018-02-24T17:13:18.049Z,20.15
2018-02-24T17:15:45.600Z,23.70
2018-02-24T17:18:13.188Z,17.90
2018-02-24T17:20:40.722Z,17.98
2018-02-24T17:23:08.257Z,17.92
2018-02-24T17:25:35.835Z,15.55
2018-02-24T17:28:03.367Z,19.67
2018-02-24T17:30:31.663Z,22.30
2018-02-24T17:32:59.241Z,25.00
2018-02-24T17:35:26.903Z,20.05
2018-02-24T17:37:54.500Z,20.30
2018-02-24T17:40:22.039Z,22.35
2018-02-24T17:42:49.592Z,24.75
2018-02-24T17:45:17.168Z,19.52
2018-02-24T17:47:46.254Z,28.95
2018-02-24T17:50:13.806Z,28.45
2018-02-24T17:52:41.387Z,32.15
2018-02-24T17:55:08.940Z,22.80
2018-02-24T17:57:36.484Z,28.42
2018-02-24T18:00:04.078Z,29.02
2018-02-24T18:02:31.616Z,23.77
2018-02-24T18:04:59.168Z,26.02
2018-02-24T18:07:26.736Z,26.50
2018-02-24T18:09:54.279Z,36.53
2018-02-24T18:12:21.847Z,29.58
2018-02-24T18:14:49.389Z,32.05
2018-02-24T18:17:16.976Z,34.60
2018-02-24T18:19:44.511Z,28.23
2018-02-24T18:22:12.058Z,27.45
2018-02-24T18:24:39.667Z,28.92
2018-02-24T18:27:07.203Z,32.17
2018-02-24T18:29:34.787Z,33.53
2018-02-24T18:32:03.117Z,35.25
2018-02-24T18:34:30.651Z,34.38
2018-02-24T18:36:59.006Z,33.08
2018-02-24T18:39:26.712Z,28.80
2018-02-24T18:41:54.255Z,34.17
2018-02-24T18:44:22.606Z,30.62
2018-02-24T18:46:50.958Z,34.67
2018-02-24T18:49:18.494Z,30.58
2018-02-24T18:51:46.164Z,31.98
2018-02-24T18:54:13.724Z,23.10
2018-02-24T18:56:41.283Z,32.25
2018-02-24T18:59:08.833Z,24.02
2018-02-24T19:01:36.416Z,28.45
2018-02-24T19:04:03.964Z,28.62
2018-02-24T19:06:31.508Z,35.40
2018-02-24T19:08:59.084Z,24.42
2018-02-24T19:11:26.664Z,33.72
2018-02-24T19:13:54.221Z,33.17
2018-02-24T19:16:21.780Z,35.47
2018-02-24T19:18:49.372Z,31.58
2018-02-24T19:21:17.710Z,29.58
2018-02-24T19:23:45.307Z,30.35
2018-02-24T19:26:12.893Z,33.50
2018-02-24T19:28:40.437Z,29.48
2018-02-24T19:31:08.778Z,23.23
2018-02-24T19:33:36.344Z,27.33
2018-02-24T19:36:03.924Z,28.73
2018-02-24T19:38:31.463Z,27.80
2018-02-24T19:40:59.058Z,20.52
2018-02-24T19:43:27.364Z,24.45
2018-02-24T19:45:54.949Z,27.35
2018-02-24T19:48:22.561Z,31.48
2018-02-24T19:50:50.136Z,26.80
2018-02-24T19:53:17.677Z,26.62
2018-02-24T19:55:46.057Z,33.42
2018-02-24T19:58:14.380Z,31.62
2018-02-24T20:00:41.963Z,30.80
2018-02-24T20:03:09.508Z,31.23
2018-02-24T20:05:37.092Z,33.42
2018-02-24T20:08:04.646Z,21.70
2018-02-24T20:10:32.225Z,21.35
2018-02-24T20:13:00.567Z,26.15
2018-02-24T20:15:28.120Z,23.48
2018-02-24T20:17:55.700Z,24.23
2018-02-24T20:20:23.275Z,25.02
2018-02-24T20:22:50.828Z,26.83
2018-02-24T20:25:18.404Z,35.00
2018-02-24T20:27:46.712Z,27.85
2018-02-24T20:30:14.316Z,21.58
2018-02-24T20:32:42.632Z,28.33
2018-02-24T20:35:10.964Z,18.42
2018-02-24T20:37:38.553Z,23.62
2018-02-24T20:40:06.866Z,23.35
2018-02-24T20:42:34.452Z,21.05
2018-02-24T20:45:01.999Z,22.95
2018-02-24T20:47:29.573Z,19.02
2018-02-24T20:49:57.113Z,24.02
2018-02-24T20:52:24.698Z,23.75
2018-02-24T20:54:52.269Z,22.95
2018-02-24T20:57:19.883Z,20.40
2018-02-24T20:59:47.456Z,21.20
2018-02-24T21:02:14.999Z,20.83
2018-02-24T21:04:42.614Z,22.65
2018-02-24T21:07:10.148Z,16.35
2018-02-24T21:09:37.683Z,18.77
2018-02-24T21:12:05.262Z,18.37
2018-02-24T21:14:32.831Z,21.20
2018-02-24T21:17:00.405Z,17.23
2018-02-24T21:19:27.953Z,11.80
2018-02-24T21:21:55.582Z,18.65
2018-02-24T21:24:23.855Z,15.88
2018-02-24T21:26:51.461Z,20.73
2018-02-24T21:29:19.004Z,18.95
2018-02-24T21:31:46.599Z,18.05
2018-02-24T21:34:14.904Z,11.18
2018-02-24T21:36:42.475Z,9.70
2018-02-24T21:39:10.022Z,14.65
2018-02-24T21:41:37.609Z,11.40
2018-02-24T21:44:05.163Z,15.38
2018-02-24T21:46:32.708Z,15.82
2018-02-24T21:49:00.286Z,13.35
2018-02-24T21:51:27.870Z,13.10
2018-02-24T21:53:55.473Z,10.13
2018-02-24T21:56:23.764Z,15.13
2018-02-24T21:58:51.442Z,15.45
2018-02-24T22:01:18.980Z,11.50
2018-02-24T22:03:46.552Z,13.75
2018-02-24T22:06:14.095Z,20.25
2018-02-24T22:08:41.691Z,11.05
2018-02-24T22:11:09.265Z,13.45
2018-02-24T22:13:36.804Z,14.32
2018-02-24T22:16:04.382Z,10.85
2018-02-24T22:18:31.932Z,14.55
2018-02-24T22:20:59.514Z,11.15
2018-02-24T22:23:27.056Z,11.95
2018-02-24T22:25:54.646Z,14.00
2018-02-24T22:28:22.188Z,11.02
2018-02-24T22:30:49.723Z,13.30
2018-02-24T22:33:17.280Z,14.57
2018-02-24T22:35:44.824Z,13.35
2018-02-24T22:38:12.412Z,10.23
2018-02-24T22:40:40.045Z,11.90
2018-02-24T22:43:07.614Z,14.65
2018-02-24T22:45:35.195Z,14.87
2018-02-24T22:48:08.313Z,12.43
2018-02-24T22:50:36.012Z,11.90
2018-02-24T22:53:03.586Z,14.45
2018-02-24T22:55:31.168Z,20.08
2018-02-24T22:57:58.754Z,13.23
2018-02-24T23:00:29.293Z,9.27
2018-02-24T23:02:57.635Z,11.82
2018-02-24T23:05:25.167Z,8.45
2018-02-24T23:07:52.754Z,7.93
2018-02-24T23:10:20.343Z,8.80
2018-02-24T23:12:47.884Z,8.38
2018-02-24T23:15:15.458Z,7.60
2018-02-24T23:17:42.996Z,9.48
2018-02-24T23:20:10.587Z,14.02
2018-02-24T23:22:38.887Z,7.78
2018-02-24T23:25:06.421Z,8.85
2018-02-24T23:27:34.788Z,11.80
2018-02-24T23:30:02.344Z,8.90
2018-02-24T23:32:29.893Z,10.88
2018-02-24T23:34:57.463Z,9.63
2018-02-24T23:37:25.040Z,7.95
2018-02-24T23:39:53.384Z,8.88
2018-02-24T23:42:20.934Z,10.15
2018-02-24T23:44:48.557Z,7.53
2018-02-24T23:47:16.108Z,8.73
2018-02-24T23:49:44.519Z,12.68
2018-02-24T23:52:12.052Z,12.93
2018-02-24T23:54:40.347Z,10.27
2018-02-24T23:57:07.928Z,8.70
2018-02-24T23:59:35.459Z,6.85
